sensor_id;sensor_type;location;lat;lon;timestamp;temperature;humidity
792;DHT22;379;49.022;12.148;2022-12-18T00:01:59;-4.30;99.90
792;DHT22;379;49.022;12.148;2022-12-18T00:04:27;-4.30;99.90
792;DHT22;379;49.022;12.148;2022-12-18T00:06:55;-4.30;99.90
792;DHT22;379;49.022;12.148;2022-12-18T00:09:21;-4.30;99.90
792;DHT22;379;49.022;12.148;2022-12-18T00:11:48;-4.30;99.90
792;DHT22;379;49.022;12.148;2022-12-18T00:14:15;-4.30;99.90
792;DHT22;379;49.022;12.148;2022-12-18T00:16:44;-4.30;99.90
792;DHT22;379;49.022;12.148;2022-12-18T00:19:11;-4.30;99.90
792;DHT22;379;49.022;12.148;2022-12-18T00:21:38;-4.30;99.90
792;DHT22;379;49.022;12.148;2022-12-18T00:24:06;-4.30;99.90
792;DHT22;379;49.022;12.148;2022-12-18T00:26:34;-4.30;99.90
792;DHT22;379;49.022;12.148;2022-12-18T00:29:04;-4.30;99.90
792;DHT22;379;49.022;12.148;2022-12-18T00:31:31;-4.30;99.90
792;DHT22;379;49.022;12.148;2022-12-18T00:33:58;-4.30;99.90
792;DHT22;379;49.022;12.148;2022-12-18T00:36:27;-4.30;99.90
792;DHT22;379;49.022;12.148;2022-12-18T00:38:54;-4.30;99.90
792;DHT22;379;49.022;12.148;2022-12-18T00:41:23;-4.40;99.90
792;DHT22;379;49.022;12.148;2022-12-18T00:44:10;-4.30;99.90
792;DHT22;379;49.022;12.148;2022-12-18T00:46:37;-4.30;99.90
792;DHT22;379;49.022;12.148;2022-12-18T00:49:04;-4.30;99.90
792;DHT22;379;49.022;12.148;2022-12-18T00:51:30;-4.30;99.90
792;DHT22;379;49.022;12.148;2022-12-18T00:53:57;-4.30;99.90
792;DHT22;379;49.022;12.148;2022-12-18T00:56:25;-4.30;99.90
792;DHT22;379;49.022;12.148;2022-12-18T00:58:52;-4.30;99.90
792;DHT22;379;49.022;12.148;2022-12-18T01:01:19;-4.30;99.90
792;DHT22;379;49.022;12.148;2022-12-18T01:03:46;-4.30;99.90
792;DHT22;379;49.022;12.148;2022-12-18T01:06:14;-4.20;99.90
792;DHT22;379;49.022;12.148;2022-12-18T01:08:41;-4.20;99.90
792;DHT22;379;49.022;12.148;2022-12-18T01:11:09;-4.20;99.90
792;DHT22;379;49.022;12.148;2022-12-18T01:13:38;-4.20;99.90
792;DHT22;379;49.022;12.148;2022-12-18T01:16:05;-4.20;99.90
792;DHT22;379;49.022;12.148;2022-12-18T01:18:32;-4.20;99.90
792;DHT22;379;49.022;12.148;2022-12-18T01:20:59;-4.20;99.90
792;DHT22;379;49.022;12.148;2022-12-18T01:23:26;-4.20;99.90
792;DHT22;379;49.022;12.148;2022-12-18T01:25:52;-4.20;99.90
792;DHT22;379;49.022;12.148;2022-12-18T01:28:19;-4.20;99.90
792;DHT22;379;49.022;12.148;2022-12-18T01:30:47;-4.20;99.90
792;DHT22;379;49.022;12.148;2022-12-18T01:33:14;-4.20;99.90
792;DHT22;379;49.022;12.148;2022-12-18T01:35:41;-4.20;99.90
792;DHT22;379;49.022;12.148;2022-12-18T01:38:08;-4.20;99.90
792;DHT22;379;49.022;12.148;2022-12-18T01:40:35;-4.20;99.90
792;DHT22;379;49.022;12.148;2022-12-18T01:43:02;-4.20;99.90
792;DHT22;379;49.022;12.148;2022-12-18T01:45:30;-4.20;99.90
792;DHT22;379;49.022;12.148;2022-12-18T01:48:01;-4.20;99.90
792;DHT22;379;49.022;12.148;2022-12-18T01:50:31;-4.20;99.90
792;DHT22;379;49.022;12.148;2022-12-18T01:53:02;-4.20;99.90
792;DHT22;379;49.022;12.148;2022-12-18T01:55:34;-4.20;99.90
792;DHT22;379;49.022;12.148;2022-12-18T01:58:03;-4.20;99.90
792;DHT22;379;49.022;12.148;2022-12-18T02:00:31;-4.20;99.90
792;DHT22;379;49.022;12.148;2022-12-18T02:02:59;-4.20;99.90
792;DHT22;379;49.022;12.148;2022-12-18T02:05:36;-4.20;99.90
792;DHT22;379;49.022;12.148;2022-12-18T02:08:10;-4.10;99.90
792;DHT22;379;49.022;12.148;2022-12-18T02:10:44;-4.20;99.90
792;DHT22;379;49.022;12.148;2022-12-18T02:13:17;-4.10;99.90
792;DHT22;379;49.022;12.148;2022-12-18T02:15:53;-4.10;99.90
792;DHT22;379;49.022;12.148;2022-12-18T02:18:25;-4.10;99.90
792;DHT22;379;49.022;12.148;2022-12-18T02:20:57;-4.10;99.90
792;DHT22;379;49.022;12.148;2022-12-18T02:23:44;-4.10;99.90
792;DHT22;379;49.022;12.148;2022-12-18T02:26:18;-4.10;99.90
792;DHT22;379;49.022;12.148;2022-12-18T02:28:52;-4.10;99.90
792;DHT22;379;49.022;12.148;2022-12-18T02:31:23;-4.10;99.90
792;DHT22;379;49.022;12.148;2022-12-18T02:33:53;-4.10;99.90
792;DHT22;379;49.022;12.148;2022-12-18T02:36:22;-4.10;99.90
792;DHT22;379;49.022;12.148;2022-12-18T02:38:51;-4.10;99.90
792;DHT22;379;49.022;12.148;2022-12-18T02:41:21;-4.10;99.90
792;DHT22;379;49.022;12.148;2022-12-18T02:43:53;-4.00;99.90
792;DHT22;379;49.022;12.148;2022-12-18T02:46:31;-4.00;99.90
792;DHT22;379;49.022;12.148;2022-12-18T02:49:08;-4.00;99.90
792;DHT22;379;49.022;12.148;2022-12-18T02:51:44;-4.00;99.90
792;DHT22;379;49.022;12.148;2022-12-18T02:54:23;-4.00;99.90
792;DHT22;379;49.022;12.148;2022-12-18T02:56:55;-4.00;99.90
792;DHT22;379;49.022;12.148;2022-12-18T02:59:27;-4.10;99.90
792;DHT22;379;49.022;12.148;2022-12-18T03:02:00;-4.00;99.90
792;DHT22;379;49.022;12.148;2022-12-18T03:04:30;-4.00;99.90
792;DHT22;379;49.022;12.148;2022-12-18T03:07:12;-4.00;99.90
792;DHT22;379;49.022;12.148;2022-12-18T03:09:44;-4.00;99.90
792;DHT22;379;49.022;12.148;2022-12-18T03:12:17;-4.00;99.90
792;DHT22;379;49.022;12.148;2022-12-18T03:14:53;-4.00;99.90
792;DHT22;379;49.022;12.148;2022-12-18T03:17:22;-4.00;99.90
792;DHT22;379;49.022;12.148;2022-12-18T03:19:52;-4.10;99.90
792;DHT22;379;49.022;12.148;2022-12-18T03:22:22;-4.10;99.90
792;DHT22;379;49.022;12.148;2022-12-18T03:24:50;-4.10;99.90
792;DHT22;379;49.022;12.148;2022-12-18T03:27:20;-4.10;99.90
792;DHT22;379;49.022;12.148;2022-12-18T03:29:51;-4.10;99.90
792;DHT22;379;49.022;12.148;2022-12-18T03:32:35;-4.10;99.90
792;DHT22;379;49.022;12.148;2022-12-18T03:35:04;-4.20;99.90
792;DHT22;379;49.022;12.148;2022-12-18T03:37:32;-4.20;99.90
792;DHT22;379;49.022;12.148;2022-12-18T03:39:58;-4.10;99.90
792;DHT22;379;49.022;12.148;2022-12-18T03:42:29;-4.10;99.90
792;DHT22;379;49.022;12.148;2022-12-18T03:45:03;-4.10;99.90
792;DHT22;379;49.022;12.148;2022-12-18T03:47:37;-4.10;99.90
792;DHT22;379;49.022;12.148;2022-12-18T03:50:11;-4.10;99.90
792;DHT22;379;49.022;12.148;2022-12-18T03:52:44;-4.10;99.90
792;DHT22;379;49.022;12.148;2022-12-18T03:55:12;-4.10;99.90
792;DHT22;379;49.022;12.148;2022-12-18T03:57:42;-4.10;99.90
792;DHT22;379;49.022;12.148;2022-12-18T04:00:13;-4.10;99.90
792;DHT22;379;49.022;12.148;2022-12-18T04:02:43;-4.10;99.90
792;DHT22;379;49.022;12.148;2022-12-18T04:05:12;-4.10;99.90
792;DHT22;379;49.022;12.148;2022-12-18T04:07:39;-4.10;99.90
792;DHT22;379;49.022;12.148;2022-12-18T04:10:08;-4.10;99.90
792;DHT22;379;49.022;12.148;2022-12-18T04:12:37;-4.10;99.90
792;DHT22;379;49.022;12.148;2022-12-18T04:15:06;-4.10;99.90
792;DHT22;379;49.022;12.148;2022-12-18T04:17:33;-4.10;99.90
792;DHT22;379;49.022;12.148;2022-12-18T04:20:00;-4.10;99.90
792;DHT22;379;49.022;12.148;2022-12-18T04:22:27;-4.10;99.90
792;DHT22;379;49.022;12.148;2022-12-18T04:24:54;-4.20;99.90
792;DHT22;379;49.022;12.148;2022-12-18T04:27:20;-4.20;99.90
792;DHT22;379;49.022;12.148;2022-12-18T04:29:47;-4.20;99.90
792;DHT22;379;49.022;12.148;2022-12-18T04:32:15;-4.20;99.90
792;DHT22;379;49.022;12.148;2022-12-18T04:34:42;-4.20;99.90
792;DHT22;379;49.022;12.148;2022-12-18T04:37:09;-4.20;99.90
792;DHT22;379;49.022;12.148;2022-12-18T04:39:35;-4.20;99.90
792;DHT22;379;49.022;12.148;2022-12-18T04:42:02;-4.20;99.90
792;DHT22;379;49.022;12.148;2022-12-18T04:44:29;-4.30;99.90
792;DHT22;379;49.022;12.148;2022-12-18T04:46:55;-4.20;99.90
792;DHT22;379;49.022;12.148;2022-12-18T04:49:24;-4.30;99.90
792;DHT22;379;49.022;12.148;2022-12-18T04:51:50;-4.30;99.90
792;DHT22;379;49.022;12.148;2022-12-18T04:54:18;-4.30;99.90
792;DHT22;379;49.022;12.148;2022-12-18T04:56:46;-4.30;99.90
792;DHT22;379;49.022;12.148;2022-12-18T04:59:13;-4.30;99.90
792;DHT22;379;49.022;12.148;2022-12-18T05:01:40;-4.30;99.90
792;DHT22;379;49.022;12.148;2022-12-18T05:04:06;-4.30;99.90
792;DHT22;379;49.022;12.148;2022-12-18T05:06:34;-4.30;99.90
792;DHT22;379;49.022;12.148;2022-12-18T05:09:01;-4.30;99.90
792;DHT22;379;49.022;12.148;2022-12-18T05:11:28;-4.30;99.90
792;DHT22;379;49.022;12.148;2022-12-18T05:13:54;-4.40;99.90
792;DHT22;379;49.022;12.148;2022-12-18T05:16:21;-4.40;99.90
792;DHT22;379;49.022;12.148;2022-12-18T05:18:48;-4.40;99.90
792;DHT22;379;49.022;12.148;2022-12-18T05:21:15;-4.40;99.90
792;DHT22;379;49.022;12.148;2022-12-18T05:23:43;-4.40;99.90
792;DHT22;379;49.022;12.148;2022-12-18T05:26:14;-4.50;99.90
792;DHT22;379;49.022;12.148;2022-12-18T05:28:41;-4.50;99.90
792;DHT22;379;49.022;12.148;2022-12-18T05:31:09;-4.50;99.90
792;DHT22;379;49.022;12.148;2022-12-18T05:33:36;-4.50;99.90
792;DHT22;379;49.022;12.148;2022-12-18T05:36:04;-4.50;99.90
792;DHT22;379;49.022;12.148;2022-12-18T05:38:33;-4.60;99.90
792;DHT22;379;49.022;12.148;2022-12-18T05:41:01;-4.60;99.90
792;DHT22;379;49.022;12.148;2022-12-18T05:43:28;-4.60;99.90
792;DHT22;379;49.022;12.148;2022-12-18T05:45:55;-4.60;99.90
792;DHT22;379;49.022;12.148;2022-12-18T05:48:23;-4.60;99.90
792;DHT22;379;49.022;12.148;2022-12-18T05:50:50;-4.50;99.90
792;DHT22;379;49.022;12.148;2022-12-18T05:53:19;-4.60;99.90
792;DHT22;379;49.022;12.148;2022-12-18T05:55:47;-4.50;99.90
792;DHT22;379;49.022;12.148;2022-12-18T05:58:16;-4.50;99.90
792;DHT22;379;49.022;12.148;2022-12-18T06:00:44;-4.50;99.90
792;DHT22;379;49.022;12.148;2022-12-18T06:03:12;-4.60;99.90
792;DHT22;379;49.022;12.148;2022-12-18T06:05:40;-4.60;99.90
792;DHT22;379;49.022;12.148;2022-12-18T06:08:08;-4.70;99.90
792;DHT22;379;49.022;12.148;2022-12-18T06:10:35;-4.70;99.90
792;DHT22;379;49.022;12.148;2022-12-18T06:13:02;-4.70;99.90
792;DHT22;379;49.022;12.148;2022-12-18T06:15:30;-4.70;99.90
792;DHT22;379;49.022;12.148;2022-12-18T06:17:57;-4.70;99.90
792;DHT22;379;49.022;12.148;2022-12-18T06:20:24;-4.80;99.90
792;DHT22;379;49.022;12.148;2022-12-18T06:22:50;-4.80;99.90
792;DHT22;379;49.022;12.148;2022-12-18T06:25:17;-4.80;99.90
792;DHT22;379;49.022;12.148;2022-12-18T06:27:44;-4.80;99.90
792;DHT22;379;49.022;12.148;2022-12-18T06:30:13;-4.80;99.90
792;DHT22;379;49.022;12.148;2022-12-18T06:32:41;-4.90;99.90
792;DHT22;379;49.022;12.148;2022-12-18T06:35:08;-4.90;99.90
792;DHT22;379;49.022;12.148;2022-12-18T06:37:35;-4.90;99.90
792;DHT22;379;49.022;12.148;2022-12-18T06:40:02;-4.80;99.90
792;DHT22;379;49.022;12.148;2022-12-18T06:42:29;-4.80;99.90
792;DHT22;379;49.022;12.148;2022-12-18T06:44:55;-4.80;99.90
792;DHT22;379;49.022;12.148;2022-12-18T06:47:22;-4.80;99.90
792;DHT22;379;49.022;12.148;2022-12-18T06:49:50;-4.80;99.90
792;DHT22;379;49.022;12.148;2022-12-18T06:52:17;-4.80;99.90
792;DHT22;379;49.022;12.148;2022-12-18T06:54:44;-4.80;99.90
792;DHT22;379;49.022;12.148;2022-12-18T06:57:10;-4.80;99.90
792;DHT22;379;49.022;12.148;2022-12-18T06:59:37;-4.80;99.90
792;DHT22;379;49.022;12.148;2022-12-18T07:02:04;-4.80;99.90
792;DHT22;379;49.022;12.148;2022-12-18T07:04:31;-4.80;99.90
792;DHT22;379;49.022;12.148;2022-12-18T07:06:59;-4.80;99.90
792;DHT22;379;49.022;12.148;2022-12-18T07:09:26;-4.80;99.90
792;DHT22;379;49.022;12.148;2022-12-18T07:11:52;-4.80;99.90
792;DHT22;379;49.022;12.148;2022-12-18T07:14:19;-4.80;99.90
792;DHT22;379;49.022;12.148;2022-12-18T07:16:47;-4.80;99.90
792;DHT22;379;49.022;12.148;2022-12-18T07:19:13;-4.80;99.90
792;DHT22;379;49.022;12.148;2022-12-18T07:21:40;-4.70;99.90
792;DHT22;379;49.022;12.148;2022-12-18T07:24:08;-4.70;99.90
792;DHT22;379;49.022;12.148;2022-12-18T07:26:35;-4.70;99.90
792;DHT22;379;49.022;12.148;2022-12-18T07:29:02;-4.70;99.90
792;DHT22;379;49.022;12.148;2022-12-18T07:31:29;-4.60;99.90
792;DHT22;379;49.022;12.148;2022-12-18T07:33:55;-4.60;99.90
792;DHT22;379;49.022;12.148;2022-12-18T07:36:22;-4.60;99.90
792;DHT22;379;49.022;12.148;2022-12-18T07:38:49;-4.60;99.90
792;DHT22;379;49.022;12.148;2022-12-18T07:41:19;-4.50;99.90
792;DHT22;379;49.022;12.148;2022-12-18T07:43:46;-4.50;99.90
792;DHT22;379;49.022;12.148;2022-12-18T07:46:14;-4.50;99.90
792;DHT22;379;49.022;12.148;2022-12-18T07:48:41;-4.50;99.90
792;DHT22;379;49.022;12.148;2022-12-18T07:51:08;-4.50;99.90
792;DHT22;379;49.022;12.148;2022-12-18T07:53:35;-4.50;99.90
792;DHT22;379;49.022;12.148;2022-12-18T07:56:04;-4.50;99.90
792;DHT22;379;49.022;12.148;2022-12-18T07:58:33;-4.40;99.90
792;DHT22;379;49.022;12.148;2022-12-18T08:01:04;-4.50;99.90
792;DHT22;379;49.022;12.148;2022-12-18T08:03:31;-4.40;99.90
792;DHT22;379;49.022;12.148;2022-12-18T08:05:59;-4.40;99.90
792;DHT22;379;49.022;12.148;2022-12-18T08:08:27;-4.40;99.90
792;DHT22;379;49.022;12.148;2022-12-18T08:10:54;-4.40;99.90
792;DHT22;379;49.022;12.148;2022-12-18T08:13:21;-4.40;99.90
792;DHT22;379;49.022;12.148;2022-12-18T08:15:57;-4.40;99.90
792;DHT22;379;49.022;12.148;2022-12-18T08:18:24;-4.40;99.90
792;DHT22;379;49.022;12.148;2022-12-18T08:20:51;-4.40;99.90
792;DHT22;379;49.022;12.148;2022-12-18T08:23:17;-4.40;99.90
792;DHT22;379;49.022;12.148;2022-12-18T08:25:44;-4.40;99.90
792;DHT22;379;49.022;12.148;2022-12-18T08:28:11;-4.40;99.90
792;DHT22;379;49.022;12.148;2022-12-18T08:30:38;-4.30;99.90
792;DHT22;379;49.022;12.148;2022-12-18T08:33:06;-4.30;99.90
792;DHT22;379;49.022;12.148;2022-12-18T08:35:35;-4.30;99.90
792;DHT22;379;49.022;12.148;2022-12-18T08:38:02;-4.20;99.90
792;DHT22;379;49.022;12.148;2022-12-18T08:40:29;-4.20;99.90
792;DHT22;379;49.022;12.148;2022-12-18T08:42:55;-4.20;99.90
792;DHT22;379;49.022;12.148;2022-12-18T08:45:48;-4.10;99.90
792;DHT22;379;49.022;12.148;2022-12-18T08:48:16;-4.10;99.90
792;DHT22;379;49.022;12.148;2022-12-18T08:50:43;-4.00;99.90
792;DHT22;379;49.022;12.148;2022-12-18T08:53:10;-4.00;99.90
792;DHT22;379;49.022;12.148;2022-12-18T08:55:36;-3.90;99.90
792;DHT22;379;49.022;12.148;2022-12-18T08:58:03;-3.90;99.90
792;DHT22;379;49.022;12.148;2022-12-18T09:00:30;-3.90;99.90
792;DHT22;379;49.022;12.148;2022-12-18T09:02:56;-3.90;99.90
792;DHT22;379;49.022;12.148;2022-12-18T09:05:24;-3.80;99.90
792;DHT22;379;49.022;12.148;2022-12-18T09:07:51;-3.80;99.90
792;DHT22;379;49.022;12.148;2022-12-18T09:10:18;-3.80;99.90
792;DHT22;379;49.022;12.148;2022-12-18T09:12:44;-3.80;99.90
792;DHT22;379;49.022;12.148;2022-12-18T09:15:11;-3.80;99.90
792;DHT22;379;49.022;12.148;2022-12-18T09:17:38;-3.70;99.90
792;DHT22;379;49.022;12.148;2022-12-18T09:20:05;-3.70;99.90
792;DHT22;379;49.022;12.148;2022-12-18T09:22:33;-3.70;99.90
792;DHT22;379;49.022;12.148;2022-12-18T09:25:00;-3.70;99.90
792;DHT22;379;49.022;12.148;2022-12-18T09:27:27;-3.70;99.90
792;DHT22;379;49.022;12.148;2022-12-18T09:29:53;-3.60;99.90
792;DHT22;379;49.022;12.148;2022-12-18T09:32:21;-3.60;99.90
792;DHT22;379;49.022;12.148;2022-12-18T09:34:47;-3.60;99.90
792;DHT22;379;49.022;12.148;2022-12-18T09:37:14;-3.60;99.90
792;DHT22;379;49.022;12.148;2022-12-18T09:39:42;-3.60;99.90
792;DHT22;379;49.022;12.148;2022-12-18T09:42:17;-3.60;99.90
792;DHT22;379;49.022;12.148;2022-12-18T09:44:49;-3.60;99.90
792;DHT22;379;49.022;12.148;2022-12-18T09:47:18;-3.60;99.90
792;DHT22;379;49.022;12.148;2022-12-18T09:49:48;-3.50;99.90
792;DHT22;379;49.022;12.148;2022-12-18T09:52:19;-3.50;99.90
792;DHT22;379;49.022;12.148;2022-12-18T09:54:53;-3.50;99.90
792;DHT22;379;49.022;12.148;2022-12-18T09:57:23;-3.50;99.90
792;DHT22;379;49.022;12.148;2022-12-18T09:59:54;-3.50;99.90
792;DHT22;379;49.022;12.148;2022-12-18T10:02:23;-3.40;99.90
792;DHT22;379;49.022;12.148;2022-12-18T10:05:02;-3.40;99.90
792;DHT22;379;49.022;12.148;2022-12-18T10:07:36;-3.40;99.90
792;DHT22;379;49.022;12.148;2022-12-18T10:10:14;-3.30;99.90
792;DHT22;379;49.022;12.148;2022-12-18T10:12:51;-3.30;99.90
792;DHT22;379;49.022;12.148;2022-12-18T10:15:23;-3.30;99.90
792;DHT22;379;49.022;12.148;2022-12-18T10:17:54;-3.30;99.90
792;DHT22;379;49.022;12.148;2022-12-18T10:20:30;-3.30;99.90
792;DHT22;379;49.022;12.148;2022-12-18T10:23:03;-3.30;99.90
792;DHT22;379;49.022;12.148;2022-12-18T10:25:37;-3.30;99.90
792;DHT22;379;49.022;12.148;2022-12-18T10:28:10;-3.30;99.90
792;DHT22;379;49.022;12.148;2022-12-18T10:30:38;-3.30;99.90
792;DHT22;379;49.022;12.148;2022-12-18T10:33:05;-3.30;99.90
792;DHT22;379;49.022;12.148;2022-12-18T10:35:32;-3.30;99.90
792;DHT22;379;49.022;12.148;2022-12-18T10:38:01;-3.30;99.90
792;DHT22;379;49.022;12.148;2022-12-18T10:40:28;-3.30;99.90
792;DHT22;379;49.022;12.148;2022-12-18T10:43:05;-3.20;99.90
792;DHT22;379;49.022;12.148;2022-12-18T10:45:36;-3.20;99.90
792;DHT22;379;49.022;12.148;2022-12-18T10:48:04;-3.20;99.90
792;DHT22;379;49.022;12.148;2022-12-18T10:50:33;-3.20;99.90
792;DHT22;379;49.022;12.148;2022-12-18T10:53:01;-3.30;99.90
792;DHT22;379;49.022;12.148;2022-12-18T10:55:32;-3.30;99.90
792;DHT22;379;49.022;12.148;2022-12-18T10:58:19;-3.20;99.90
792;DHT22;379;49.022;12.148;2022-12-18T11:01:03;-3.10;99.90
792;DHT22;379;49.022;12.148;2022-12-18T11:03:32;-3.10;99.90
792;DHT22;379;49.022;12.148;2022-12-18T11:06:09;-3.10;99.90
792;DHT22;379;49.022;12.148;2022-12-18T11:08:37;-3.20;99.90
792;DHT22;379;49.022;12.148;2022-12-18T11:11:07;-3.10;99.90
792;DHT22;379;49.022;12.148;2022-12-18T11:13:57;-3.00;99.90
792;DHT22;379;49.022;12.148;2022-12-18T11:16:25;-2.80;99.90
792;DHT22;379;49.022;12.148;2022-12-18T11:18:52;-2.70;99.90
792;DHT22;379;49.022;12.148;2022-12-18T11:21:19;-2.70;99.90
792;DHT22;379;49.022;12.148;2022-12-18T11:23:48;-2.70;99.90
792;DHT22;379;49.022;12.148;2022-12-18T11:26:16;-2.70;99.90
792;DHT22;379;49.022;12.148;2022-12-18T11:28:47;-2.70;99.90
792;DHT22;379;49.022;12.148;2022-12-18T11:31:22;-2.70;99.90
792;DHT22;379;49.022;12.148;2022-12-18T11:34:03;-2.80;99.90
792;DHT22;379;49.022;12.148;2022-12-18T11:36:33;-2.70;99.90
792;DHT22;379;49.022;12.148;2022-12-18T11:39:09;-2.60;99.90
792;DHT22;379;49.022;12.148;2022-12-18T11:41:43;-2.60;99.90
792;DHT22;379;49.022;12.148;2022-12-18T11:44:37;-2.50;99.90
792;DHT22;379;49.022;12.148;2022-12-18T11:47:11;-2.30;99.90
792;DHT22;379;49.022;12.148;2022-12-18T11:49:41;-2.30;99.90
792;DHT22;379;49.022;12.148;2022-12-18T11:52:13;-2.20;99.90
792;DHT22;379;49.022;12.148;2022-12-18T11:54:41;-2.30;99.90
792;DHT22;379;49.022;12.148;2022-12-18T11:57:16;-2.30;99.90
792;DHT22;379;49.022;12.148;2022-12-18T11:59:52;-2.20;99.90
792;DHT22;379;49.022;12.148;2022-12-18T12:02:48;-2.20;99.90
792;DHT22;379;49.022;12.148;2022-12-18T12:05:36;-2.20;99.90
792;DHT22;379;49.022;12.148;2022-12-18T12:08:11;-2.20;99.90
792;DHT22;379;49.022;12.148;2022-12-18T12:10:47;-2.20;99.90
792;DHT22;379;49.022;12.148;2022-12-18T12:13:27;-2.20;99.90
792;DHT22;379;49.022;12.148;2022-12-18T12:16:07;-2.10;99.90
792;DHT22;379;49.022;12.148;2022-12-18T12:18:46;-2.20;99.90
792;DHT22;379;49.022;12.148;2022-12-18T12:21:20;-2.30;99.90
792;DHT22;379;49.022;12.148;2022-12-18T12:23:54;-2.40;99.90
792;DHT22;379;49.022;12.148;2022-12-18T12:26:26;-2.40;99.90
792;DHT22;379;49.022;12.148;2022-12-18T12:29:02;-2.40;99.90
792;DHT22;379;49.022;12.148;2022-12-18T12:31:47;-2.40;99.90
792;DHT22;379;49.022;12.148;2022-12-18T12:34:20;-2.40;99.90
792;DHT22;379;49.022;12.148;2022-12-18T12:36:59;-2.40;99.90
792;DHT22;379;49.022;12.148;2022-12-18T12:39:31;-2.30;99.90
792;DHT22;379;49.022;12.148;2022-12-18T12:41:59;-2.10;99.90
792;DHT22;379;49.022;12.148;2022-12-18T12:44:47;-2.20;99.90
792;DHT22;379;49.022;12.148;2022-12-18T12:47:18;-2.20;99.90
792;DHT22;379;49.022;12.148;2022-12-18T12:49:47;-2.40;99.90
792;DHT22;379;49.022;12.148;2022-12-18T12:52:20;-2.40;99.90
792;DHT22;379;49.022;12.148;2022-12-18T12:54:49;-2.50;99.90
792;DHT22;379;49.022;12.148;2022-12-18T12:57:20;-2.60;99.90
792;DHT22;379;49.022;12.148;2022-12-18T12:59:52;-2.70;99.90
792;DHT22;379;49.022;12.148;2022-12-18T13:02:29;-2.80;99.90
792;DHT22;379;49.022;12.148;2022-12-18T13:05:01;-2.80;99.90
792;DHT22;379;49.022;12.148;2022-12-18T13:07:35;-2.80;99.90
792;DHT22;379;49.022;12.148;2022-12-18T13:10:32;-2.80;99.90
792;DHT22;379;49.022;12.148;2022-12-18T13:13:01;-2.90;99.90
792;DHT22;379;49.022;12.148;2022-12-18T13:15:34;-3.00;99.90
792;DHT22;379;49.022;12.148;2022-12-18T13:18:10;-3.10;99.90
792;DHT22;379;49.022;12.148;2022-12-18T13:20:39;-3.10;99.90
792;DHT22;379;49.022;12.148;2022-12-18T13:23:30;-3.20;99.90
792;DHT22;379;49.022;12.148;2022-12-18T13:25:58;-3.20;99.90
792;DHT22;379;49.022;12.148;2022-12-18T13:28:50;-3.20;99.90
792;DHT22;379;49.022;12.148;2022-12-18T13:34:21;-3.30;99.90
792;DHT22;379;49.022;12.148;2022-12-18T13:36:48;-3.40;99.90
792;DHT22;379;49.022;12.148;2022-12-18T13:39:24;-3.50;99.90
792;DHT22;379;49.022;12.148;2022-12-18T13:41:53;-3.60;99.90
792;DHT22;379;49.022;12.148;2022-12-18T13:44:27;-3.60;99.90
792;DHT22;379;49.022;12.148;2022-12-18T13:46:57;-3.70;99.90
792;DHT22;379;49.022;12.148;2022-12-18T13:49:29;-3.80;99.90
792;DHT22;379;49.022;12.148;2022-12-18T13:51:56;-3.90;99.90
792;DHT22;379;49.022;12.148;2022-12-18T13:54:27;-4.00;99.90
792;DHT22;379;49.022;12.148;2022-12-18T13:56:55;-4.10;99.90
792;DHT22;379;49.022;12.148;2022-12-18T13:59:24;-4.20;99.90
792;DHT22;379;49.022;12.148;2022-12-18T14:01:53;-4.20;99.90
792;DHT22;379;49.022;12.148;2022-12-18T14:04:23;-4.30;99.90
792;DHT22;379;49.022;12.148;2022-12-18T14:06:55;-4.40;99.90
792;DHT22;379;49.022;12.148;2022-12-18T14:09:25;-4.40;99.90
792;DHT22;379;49.022;12.148;2022-12-18T14:11:53;-4.40;99.90
792;DHT22;379;49.022;12.148;2022-12-18T14:14:44;-4.50;99.90
792;DHT22;379;49.022;12.148;2022-12-18T14:17:13;-4.60;99.90
792;DHT22;379;49.022;12.148;2022-12-18T14:19:42;-4.70;99.90
792;DHT22;379;49.022;12.148;2022-12-18T14:22:19;-4.70;99.90
792;DHT22;379;49.022;12.148;2022-12-18T14:24:47;-4.80;99.90
792;DHT22;379;49.022;12.148;2022-12-18T14:27:23;-4.90;99.90
792;DHT22;379;49.022;12.148;2022-12-18T14:29:50;-5.00;99.90
792;DHT22;379;49.022;12.148;2022-12-18T14:32:18;-5.10;99.90
792;DHT22;379;49.022;12.148;2022-12-18T14:34:46;-5.10;99.90
792;DHT22;379;49.022;12.148;2022-12-18T14:37:15;-5.20;99.90
792;DHT22;379;49.022;12.148;2022-12-18T14:39:54;-5.20;99.90
792;DHT22;379;49.022;12.148;2022-12-18T14:42:22;-5.30;99.90
792;DHT22;379;49.022;12.148;2022-12-18T14:44:48;-5.40;99.90
792;DHT22;379;49.022;12.148;2022-12-18T14:47:16;-5.40;99.90
792;DHT22;379;49.022;12.148;2022-12-18T14:49:43;-5.50;99.90
792;DHT22;379;49.022;12.148;2022-12-18T14:52:20;-5.40;99.90
792;DHT22;379;49.022;12.148;2022-12-18T14:54:49;-5.50;99.90
792;DHT22;379;49.022;12.148;2022-12-18T14:57:21;-5.50;99.90
792;DHT22;379;49.022;12.148;2022-12-18T14:59:48;-5.50;99.90
792;DHT22;379;49.022;12.148;2022-12-18T15:02:19;-5.60;99.90
792;DHT22;379;49.022;12.148;2022-12-18T15:04:47;-5.60;99.90
792;DHT22;379;49.022;12.148;2022-12-18T15:07:25;-5.70;99.90
792;DHT22;379;49.022;12.148;2022-12-18T15:10:11;-5.80;99.90
792;DHT22;379;49.022;12.148;2022-12-18T15:12:41;-5.90;99.90
792;DHT22;379;49.022;12.148;2022-12-18T15:15:43;-6.00;99.90
792;DHT22;379;49.022;12.148;2022-12-18T15:18:13;-6.00;99.90
792;DHT22;379;49.022;12.148;2022-12-18T15:20:44;-6.10;99.90
792;DHT22;379;49.022;12.148;2022-12-18T15:23:17;-6.10;99.90
792;DHT22;379;49.022;12.148;2022-12-18T15:25:45;-6.20;99.90
792;DHT22;379;49.022;12.148;2022-12-18T15:28:22;-6.20;99.90
792;DHT22;379;49.022;12.148;2022-12-18T15:31:04;-6.20;99.90
792;DHT22;379;49.022;12.148;2022-12-18T15:33:33;-6.20;99.90
792;DHT22;379;49.022;12.148;2022-12-18T15:36:02;-6.20;99.90
792;DHT22;379;49.022;12.148;2022-12-18T15:38:29;-6.10;99.90
792;DHT22;379;49.022;12.148;2022-12-18T15:40:57;-6.10;99.90
792;DHT22;379;49.022;12.148;2022-12-18T15:43:25;-6.10;99.90
792;DHT22;379;49.022;12.148;2022-12-18T15:46:02;-6.10;99.90
792;DHT22;379;49.022;12.148;2022-12-18T15:48:29;-6.10;99.90
792;DHT22;379;49.022;12.148;2022-12-18T15:50:57;-6.20;99.90
792;DHT22;379;49.022;12.148;2022-12-18T15:53:25;-6.30;99.90
792;DHT22;379;49.022;12.148;2022-12-18T15:55:54;-6.30;99.90
792;DHT22;379;49.022;12.148;2022-12-18T15:58:40;-6.40;99.90
792;DHT22;379;49.022;12.148;2022-12-18T16:01:08;-6.40;99.90
792;DHT22;379;49.022;12.148;2022-12-18T16:03:35;-6.40;99.90
792;DHT22;379;49.022;12.148;2022-12-18T16:06:01;-6.40;99.90
792;DHT22;379;49.022;12.148;2022-12-18T16:08:28;-6.50;99.90
792;DHT22;379;49.022;12.148;2022-12-18T16:10:56;-6.50;99.90
792;DHT22;379;49.022;12.148;2022-12-18T16:13:23;-6.50;99.90
792;DHT22;379;49.022;12.148;2022-12-18T16:15:51;-6.50;99.90
792;DHT22;379;49.022;12.148;2022-12-18T16:18:18;-6.50;99.90
792;DHT22;379;49.022;12.148;2022-12-18T16:20:44;-6.50;99.90
792;DHT22;379;49.022;12.148;2022-12-18T16:23:11;-6.60;99.90
792;DHT22;379;49.022;12.148;2022-12-18T16:25:38;-6.50;99.90
792;DHT22;379;49.022;12.148;2022-12-18T16:28:05;-6.50;99.90
792;DHT22;379;49.022;12.148;2022-12-18T16:30:31;-6.50;99.90
792;DHT22;379;49.022;12.148;2022-12-18T16:33:00;-6.60;99.90
792;DHT22;379;49.022;12.148;2022-12-18T16:35:27;-6.60;99.90
792;DHT22;379;49.022;12.148;2022-12-18T16:37:53;-6.60;99.90
792;DHT22;379;49.022;12.148;2022-12-18T16:40:20;-6.60;99.90